Time;durP1;ratioP1;P1;durP2;ratioP2;P2;SDS_P1;SDS_P2;PMS_P1;PMS_P2;Temp;Humidity;BMP_temperature;BMP_pressure;BME280_temperature;BME280_humidity;BME280_pressure;Samples;Min_cycle;Max_cycle;Signal;HPM_P1;HPM_P2
2023/01/30 00:03:21;;;;;;;;;;;16.20;60.30;;;;;;10352910;28;91975;-60
2023/01/30 00:08:23;;;;;;;;;;;16.20;60.30;;;;;;10372010;28;93629;-60
2023/01/30 00:13:26;;;;;;;;;;;16.20;60.30;;;;;;10373075;28;93453;-60
2023/01/30 00:18:28;;;;;;;;;;;16.20;60.30;;;;;;10335674;28;95855;-60
2023/01/30 00:23:30;;;;;;;;;;;16.20;60.20;;;;;;10372280;28;94487;-60
2023/01/30 00:28:32;;;;;;;;;;;16.20;60.30;;;;;;10371375;28;94512;-60
2023/01/30 00:33:35;;;;;;;;;;;16.10;60.20;;;;;;10371067;28;93176;-59
2023/01/30 00:38:37;;;;;;;;;;;16.10;60.10;;;;;;10374892;28;93524;-60
2023/01/30 00:48:59;;;;;;;;;;;16.10;60.20;;;;;;10408638;28;94255;-60
2023/01/30 00:54:01;;;;;;;;;;;16.10;60.20;;;;;;10368021;28;93333;-61
2023/01/30 00:59:02;;;;;;;;;;;16.10;60.10;;;;;;10370974;28;94575;-60
2023/01/30 01:04:05;;;;;;;;;;;16.00;60.10;;;;;;10370148;28;93973;-61
2023/01/30 01:09:07;;;;;;;;;;;16.00;60.00;;;;;;10350381;28;95967;-61
2023/01/30 01:14:09;;;;;;;;;;;16.00;60.00;;;;;;10354078;28;95938;-60
2023/01/30 01:19:10;;;;;;;;;;;16.00;60.10;;;;;;10353852;28;94533;-58
2023/01/30 01:24:13;;;;;;;;;;;16.00;60.10;;;;;;10371700;28;94581;-58
2023/01/30 01:29:16;;;;;;;;;;;16.00;60.10;;;;;;10371914;28;94084;-58
2023/01/30 01:34:17;;;;;;;;;;;16.00;60.10;;;;;;10371060;28;93161;-58
2023/01/30 01:39:19;;;;;;;;;;;16.00;60.10;;;;;;10375290;28;94449;-58
2023/01/30 01:44:23;;;;;;;;;;;15.90;60.00;;;;;;10360530;28;92955;-58
2023/01/30 01:49:27;;;;;;;;;;;15.90;60.00;;;;;;10377244;28;94355;-58
2023/01/30 01:54:41;;;;;;;;;;;15.90;60.00;;;;;;10377318;28;93426;-58
2023/01/30 01:59:45;;;;;;;;;;;15.90;60.00;;;;;;10373353;28;95910;-58
2023/01/30 02:05:01;;;;;;;;;;;15.90;60.00;;;;;;10786725;22;96735;-58
2023/01/30 02:10:03;;;;;;;;;;;15.90;60.00;;;;;;10391715;28;94311;-59
2023/01/30 02:15:05;;;;;;;;;;;15.90;60.00;;;;;;10418052;28;93483;-59
2023/01/30 02:20:18;;;;;;;;;;;15.90;60.10;;;;;;10418074;28;94526;-59
2023/01/30 02:25:46;;;;;;;;;;;15.80;60.00;;;;;;10418293;28;94447;-58
2023/01/30 02:31:13;;;;;;;;;;;15.80;60.10;;;;;;10393351;28;94443;-57
2023/01/30 02:36:14;;;;;;;;;;;15.80;60.10;;;;;;10418389;28;93556;-58
2023/01/30 02:41:25;;;;;;;;;;;15.80;60.20;;;;;;10411974;28;93457;-58
2023/01/30 02:46:45;;;;;;;;;;;15.80;60.10;;;;;;10362417;28;93397;-58
2023/01/30 02:51:48;;;;;;;;;;;15.80;60.10;;;;;;10395473;28;95854;-58
2023/01/30 02:56:51;;;;;;;;;;;15.80;60.20;;;;;;10410971;28;93524;-58
2023/01/30 03:01:56;;;;;;;;;;;15.80;60.10;;;;;;10398752;28;93435;-59
2023/01/30 03:07:16;;;;;;;;;;;15.80;60.20;;;;;;10414910;28;92516;-59
2023/01/30 03:12:31;;;;;;;;;;;15.70;60.20;;;;;;10414816;28;93783;-58
2023/01/30 03:17:33;;;;;;;;;;;15.70;60.20;;;;;;10414285;28;93493;-58
2023/01/30 03:22:35;;;;;;;;;;;15.70;60.30;;;;;;10415313;28;93307;-58
2023/01/30 03:27:37;;;;;;;;;;;15.70;60.20;;;;;;10415064;28;92496;-58
2023/01/30 03:32:38;;;;;;;;;;;15.70;60.20;;;;;;10415670;28;92769;-59
2023/01/30 03:37:40;;;;;;;;;;;15.70;60.30;;;;;;10414644;28;94131;-58
2023/01/30 03:42:42;;;;;;;;;;;15.70;60.30;;;;;;10413346;28;95585;-58
2023/01/30 03:47:44;;;;;;;;;;;15.70;60.30;;;;;;10414133;28;93536;-59
2023/01/30 03:52:45;;;;;;;;;;;15.70;60.30;;;;;;10413854;28;93494;-60
2023/01/30 03:57:47;;;;;;;;;;;15.70;60.40;;;;;;10378784;28;94404;-59
2023/01/30 04:02:49;;;;;;;;;;;15.60;60.30;;;;;;10372145;28;93504;-59
2023/01/30 04:07:54;;;;;;;;;;;15.60;60.30;;;;;;10372245;28;94534;-59
2023/01/30 04:12:56;;;;;;;;;;;15.60;60.30;;;;;;10373087;28;93452;-60
2023/01/30 04:17:58;;;;;;;;;;;15.60;60.30;;;;;;10373377;28;93876;-60
2023/01/30 04:23:00;;;;;;;;;;;15.60;60.30;;;;;;10371595;28;93458;-60
2023/01/30 04:28:01;;;;;;;;;;;15.60;60.30;;;;;;10372069;28;93734;-60
2023/01/30 04:33:03;;;;;;;;;;;15.60;60.30;;;;;;10369966;28;96224;-59
2023/01/30 04:38:05;;;;;;;;;;;15.60;60.20;;;;;;10373004;28;93887;-59
2023/01/30 04:43:06;;;;;;;;;;;15.60;60.30;;;;;;10371817;28;94417;-60
2023/01/30 06:05:37;;;;;;;;;;;16.20;59.20;;;;;;10347645;28;93115;-60
2023/01/30 06:10:39;;;;;;;;;;;16.40;58.50;;;;;;10367276;28;94502;-61
2023/01/30 06:15:41;;;;;;;;;;;16.50;58.30;;;;;;10370072;28;93717;-60
2023/01/30 06:20:46;;;;;;;;;;;16.50;58.10;;;;;;10351565;28;93609;-60
2023/01/30 06:25:49;;;;;;;;;;;16.50;58.00;;;;;;10374709;28;94208;-61
2023/01/30 06:30:51;;;;;;;;;;;16.40;57.90;;;;;;10372876;28;96458;-61
2023/01/30 06:35:53;;;;;;;;;;;16.40;58.00;;;;;;10357552;28;92946;-60
2023/01/30 06:40:55;;;;;;;;;;;16.30;57.90;;;;;;10356420;28;93459;-61
2023/01/30 06:45:59;;;;;;;;;;;16.30;58.00;;;;;;10372592;28;94466;-59
2023/01/30 06:51:01;;;;;;;;;;;16.20;59.30;;;;;;10375040;28;93227;-60
2023/01/30 06:56:03;;;;;;;;;;;16.20;60.20;;;;;;10396703;28;94118;-61
2023/01/30 07:01:05;;;;;;;;;;;16.20;59.40;;;;;;10416634;28;93467;-60
2023/01/30 07:06:07;;;;;;;;;;;16.30;59.10;;;;;;10416081;28;92706;-60
2023/01/30 07:11:09;;;;;;;;;;;16.40;59.00;;;;;;10417286;28;93133;-60
2023/01/30 07:16:10;;;;;;;;;;;16.50;58.70;;;;;;10416369;28;93601;-60
2023/01/30 07:21:12;;;;;;;;;;;16.50;58.50;;;;;;10413062;28;95733;-60
2023/01/30 07:26:14;;;;;;;;;;;16.50;58.40;;;;;;10415566;28;92544;-60
2023/01/30 07:31:15;;;;;;;;;;;16.50;58.40;;;;;;10416186;28;93571;-60
2023/01/30 07:36:17;;;;;;;;;;;16.40;58.30;;;;;;10414616;27;93866;-60
2023/01/30 07:41:19;;;;;;;;;;;16.40;58.40;;;;;;10415194;28;92806;-60
2023/01/30 07:46:20;;;;;;;;;;;16.30;58.40;;;;;;10414989;28;94254;-60
2023/01/30 07:51:22;;;;;;;;;;;16.30;58.50;;;;;;10416064;28;94444;-60
2023/01/30 07:56:24;;;;;;;;;;;16.20;58.50;;;;;;10415610;28;93703;-60
2023/01/30 08:01:26;;;;;;;;;;;16.10;58.50;;;;;;10414935;28;94436;-61
2023/01/30 08:06:27;;;;;;;;;;;16.10;58.70;;;;;;10414610;28;94595;-60
2023/01/30 08:11:29;;;;;;;;;;;16.10;58.80;;;;;;10410903;28;96834;-60
2023/01/30 08:16:32;;;;;;;;;;;16.00;59.20;;;;;;10413255;28;93699;-60
2023/01/30 08:21:34;;;;;;;;;;;16.00;59.00;;;;;;10414927;28;94775;-60
2023/01/30 08:26:36;;;;;;;;;;;16.00;58.90;;;;;;10395600;28;93676;-60
2023/01/30 08:31:38;;;;;;;;;;;15.90;58.80;;;;;;10414092;28;93707;-60
2023/01/30 08:36:39;;;;;;;;;;;15.90;58.80;;;;;;10414095;28;94591;-60
2023/01/30 08:41:42;;;;;;;;;;;15.80;58.90;;;;;;10413648;28;93966;-60
2023/01/30 08:46:43;;;;;;;;;;;15.80;59.20;;;;;;10412768;27;92580;-60
2023/01/30 08:51:45;;;;;;;;;;;15.80;59.10;;;;;;10413049;28;93508;-60
2023/01/30 08:56:47;;;;;;;;;;;15.70;59.10;;;;;;10413235;28;94452;-60
2023/01/30 09:01:48;;;;;;;;;;;15.70;59.30;;;;;;10410920;28;97313;-60
2023/01/30 09:06:50;;;;;;;;;;;15.60;59.20;;;;;;10412498;28;93839;-60
2023/01/30 09:11:52;;;;;;;;;;;15.60;59.20;;;;;;10412317;28;93445;-61
2023/01/30 09:16:57;;;;;;;;;;;15.60;59.30;;;;;;10412354;28;92756;-61
2023/01/30 09:21:59;;;;;;;;;;;15.60;59.30;;;;;;10412839;28;94476;-60
2023/01/30 09:27:00;;;;;;;;;;;15.60;59.30;;;;;;10410471;28;93504;-60
2023/01/30 09:32:02;;;;;;;;;;;15.60;59.40;;;;;;10411179;28;93862;-60
2023/01/30 09:37:04;;;;;;;;;;;15.60;59.50;;;;;;10413027;28;93701;-60
2023/01/30 09:42:21;;;;;;;;;;;15.50;59.50;;;;;;10393850;28;93641;-60
2023/01/30 09:47:31;;;;;;;;;;;15.50;59.50;;;;;;10412382;28;94533;-60
2023/01/30 09:52:43;;;;;;;;;;;15.50;59.40;;;;;;10408284;28;95336;-60
2023/01/30 09:57:49;;;;;;;;;;;15.50;59.40;;;;;;10412700;27;93648;-60
2023/01/30 10:03:00;;;;;;;;;;;15.50;59.40;;;;;;10418342;28;95520;-60
2023/01/30 10:08:16;;;;;;;;;;;15.50;59.40;;;;;;10417762;28;94553;-60
2023/01/30 10:13:34;;;;;;;;;;;15.50;59.30;;;;;;10416402;28;93209;-61
2023/01/30 10:18:36;;;;;;;;;;;15.50;59.30;;;;;;10417558;28;93925;-60
2023/01/30 10:23:59;;;;;;;;;;;15.50;59.30;;;;;;10417956;28;94576;-60
2023/01/30 10:29:04;;;;;;;;;;;15.50;59.20;;;;;;10418980;28;93718;-61
2023/01/30 10:34:10;;;;;;;;;;;15.40;59.10;;;;;;10418138;28;94626;-60
2023/01/30 10:39:33;;;;;;;;;;;15.50;59.20;;;;;;10417303;28;93314;-61
2023/01/30 10:44:41;;;;;;;;;;;15.50;59.00;;;;;;10413511;28;96756;-61
2023/01/30 10:49:44;;;;;;;;;;;15.50;59.00;;;;;;10417843;28;94100;-60
2023/01/30 10:54:49;;;;;;;;;;;15.50;59.00;;;;;;10417318;28;94541;-61
2023/01/30 10:59:50;;;;;;;;;;;15.50;59.00;;;;;;10416523;28;93508;-60
2023/01/30 11:04:59;;;;;;;;;;;15.40;59.10;;;;;;10416179;28;94303;-61
2023/01/30 11:10:14;;;;;;;;;;;15.40;59.10;;;;;;10408502;28;93464;-61
2023/01/30 11:15:16;;;;;;;;;;;15.40;59.10;;;;;;10416365;28;93228;-61
2023/01/30 11:20:23;;;;;;;;;;;15.40;59.10;;;;;;10417486;28;93561;-60
2023/01/30 11:25:24;;;;;;;;;;;15.40;60.10;;;;;;10416618;28;94442;-60
2023/01/30 11:30:27;;;;;;;;;;;15.40;59.10;;;;;;10413858;28;93491;-60
2023/01/30 11:35:29;;;;;;;;;;;15.40;59.10;;;;;;10414709;28;95801;-60
2023/01/30 11:40:36;;;;;;;;;;;15.40;59.10;;;;;;10397003;28;94109;-60
2023/01/30 11:45:43;;;;;;;;;;;15.40;59.10;;;;;;10415473;28;93400;-60
2023/01/30 11:50:46;;;;;;;;;;;15.40;59.10;;;;;;10416214;28;94758;-60
2023/01/30 11:55:50;;;;;;;;;;;15.40;59.10;;;;;;10414808;28;93492;-60
2023/01/30 12:01:08;;;;;;;;;;;15.40;59.10;;;;;;10415273;28;94604;-60
2023/01/30 12:06:09;;;;;;;;;;;15.40;59.30;;;;;;10414694;28;93478;-60
2023/01/30 12:11:31;;;;;;;;;;;15.30;59.20;;;;;;10414276;28;92724;-60
2023/01/30 12:16:42;;;;;;;;;;;15.30;59.20;;;;;;10403963;28;94424;-60
2023/01/30 12:21:51;;;;;;;;;;;15.30;59.10;;;;;;10413578;27;94416;-61
2023/01/30 12:26:58;;;;;;;;;;;15.30;59.00;;;;;;10411714;28;95991;-60
2023/01/30 12:32:14;;;;;;;;;;;15.30;59.00;;;;;;10413234;28;93384;-60
2023/01/30 12:37:24;;;;;;;;;;;15.30;59.00;;;;;;10412993;28;93650;-60
2023/01/30 12:42:41;;;;;;;;;;;15.30;59.00;;;;;;10395199;28;93518;-61
2023/01/30 12:48:01;;;;;;;;;;;15.30;59.00;;;;;;10412377;28;92551;-60
2023/01/30 12:53:18;;;;;;;;;;;15.30;58.90;;;;;;10413144;28;94446;-60
2023/01/30 12:58:29;;;;;;;;;;;15.30;59.00;;;;;;10411429;28;94661;-60
2023/01/30 13:03:42;;;;;;;;;;;15.30;59.00;;;;;;10411757;28;92921;-61
2023/01/30 13:09:10;;;;;;;;;;;15.30;59.00;;;;;;10412443;28;93094;-60
2023/01/30 13:14:11;;;;;;;;;;;15.30;59.00;;;;;;10394896;28;94520;-61
2023/01/30 13:19:33;;;;;;;;;;;15.30;58.90;;;;;;10409507;28;96212;-60
2023/01/30 13:24:47;;;;;;;;;;;15.30;58.90;;;;;;10411987;28;94114;-61
2023/01/30 13:29:50;;;;;;;;;;;15.30;58.70;;;;;;10408935;28;93258;-60
2023/01/30 13:34:52;;;;;;;;;;;15.30;58.90;;;;;;10393128;28;94567;-61
2023/01/30 13:40:26;;;;;;;;;;;15.30;59.80;;;;;;10408723;28;93777;-61
2023/01/30 13:45:30;;;;;;;;;;;15.30;58.80;;;;;;10359251;28;93179;-60
2023/01/30 13:50:50;;;;;;;;;;;15.30;58.80;;;;;;10405734;28;94243;-61
2023/01/30 13:55:56;;;;;;;;;;;15.30;58.70;;;;;;10395244;28;93810;-60
2023/01/30 14:00:58;;;;;;;;;;;15.30;58.70;;;;;;10393720;28;93471;-60
2023/01/30 14:06:02;;;;;;;;;;;15.30;59.80;;;;;;10408825;28;94419;-60
2023/01/30 14:11:04;;;;;;;;;;;15.30;58.80;;;;;;10404715;28;95941;-60
2023/01/30 14:16:06;;;;;;;;;;;15.30;58.70;;;;;;10389111;28;93571;-60
2023/01/30 14:21:12;;;;;;;;;;;15.30;58.80;;;;;;10407658;28;93649;-60
2023/01/30 14:26:13;;;;;;;;;;;15.30;58.60;;;;;;10411505;28;94190;-60
2023/01/30 14:31:35;;;;;;;;;;;15.30;58.70;;;;;;10409448;28;93653;-60
2023/01/30 14:36:45;;;;;;;;;;;15.20;58.60;;;;;;10409352;28;93447;-60
2023/01/30 14:42:07;;;;;;;;;;;15.30;58.70;;;;;;10409223;28;93254;-60
2023/01/30 14:47:16;;;;;;;;;;;15.30;58.70;;;;;;10414623;27;93517;-60
2023/01/30 14:52:39;;;;;;;;;;;15.30;58.80;;;;;;10389085;28;92899;-60
2023/01/30 14:57:47;;;;;;;;;;;15.30;58.80;;;;;;10415850;28;93526;-60
2023/01/30 15:02:55;;;;;;;;;;;15.30;58.80;;;;;;10396104;28;96974;-60
2023/01/30 15:08:05;;;;;;;;;;;15.30;58.80;;;;;;10416035;28;94505;-60
2023/01/30 15:13:25;;;;;;;;;;;15.20;58.80;;;;;;10416666;28;94450;-60
2023/01/30 15:18:30;;;;;;;;;;;15.20;58.90;;;;;;10415660;28;93193;-60
2023/01/30 15:23:47;;;;;;;;;;;15.20;58.90;;;;;;10414839;28;93160;-60
2023/01/30 15:29:08;;;;;;;;;;;15.20;58.90;;;;;;10398162;28;93508;-61
2023/01/30 15:34:18;;;;;;;;;;;15.20;59.00;;;;;;10376099;28;92694;-60
2023/01/30 15:39:21;;;;;;;;;;;15.20;59.00;;;;;;10357636;28;93853;-60
2023/01/30 15:44:31;;;;;;;;;;;15.20;59.00;;;;;;10373668;28;93569;-60
2023/01/30 15:49:42;;;;;;;;;;;15.20;59.00;;;;;;10372953;28;93419;-60
2023/01/30 15:54:46;;;;;;;;;;;15.10;59.00;;;;;;10370132;28;96808;-60
2023/01/30 15:59:51;;;;;;;;;;;15.10;59.10;;;;;;10374144;28;94220;-60
2023/01/30 16:05:25;;;;;;;;;;;15.10;59.10;;;;;;10372040;28;92509;-60
2023/01/30 16:10:28;;;;;;;;;;;15.10;59.00;;;;;;10326641;28;93549;-60
2023/01/30 16:15:37;;;;;;;;;;;15.10;59.10;;;;;;10373301;28;93537;-60
2023/01/30 16:20:44;;;;;;;;;;;15.10;59.10;;;;;;10372270;28;93140;-60
2023/01/30 16:26:02;;;;;;;;;;;15.10;59.10;;;;;;10372911;28;94638;-60
2023/01/30 16:31:05;;;;;;;;;;;15.10;59.10;;;;;;10372560;28;93842;-60
2023/01/30 16:36:19;;;;;;;;;;;15.00;59.00;;;;;;10371378;28;93441;-60
2023/01/30 16:41:29;;;;;;;;;;;15.00;59.00;;;;;;10353962;28;93851;-60
2023/01/30 16:46:40;;;;;;;;;;;15.00;58.90;;;;;;10368918;28;95801;-60
2023/01/30 16:51:42;;;;;;;;;;;15.10;59.10;;;;;;10371400;28;93476;-60
2023/01/30 16:56:46;;;;;;;;;;;15.30;59.00;;;;;;10370350;28;93008;-60
2023/01/30 17:01:48;;;;;;;;;;;15.50;58.60;;;;;;10370191;28;93885;-60
2023/01/30 17:06:52;;;;;;;;;;;15.80;58.00;;;;;;10369314;28;94138;-60
2023/01/30 17:11:53;;;;;;;;;;;16.10;57.50;;;;;;10370664;28;94587;-60
2023/01/30 17:16:59;;;;;;;;;;;16.40;57.20;;;;;;10371157;28;93446;-60
2023/01/30 17:22:05;;;;;;;;;;;16.60;56.70;;;;;;10372394;28;92716;-60
2023/01/30 17:27:07;;;;;;;;;;;16.80;56.30;;;;;;10370952;28;94501;-60
2023/01/30 17:32:10;;;;;;;;;;;17.00;55.80;;;;;;10370302;28;94332;-60
2023/01/30 17:37:16;;;;;;;;;;;17.10;55.60;;;;;;10368181;28;96989;-60
2023/01/30 17:42:19;;;;;;;;;;;17.10;55.40;;;;;;10370300;28;93576;-60
2023/01/30 17:47:21;;;;;;;;;;;17.20;55.40;;;;;;10369920;28;94478;-60
2023/01/30 17:52:23;;;;;;;;;;;17.20;55.30;;;;;;10370789;28;94332;-60
2023/01/30 17:57:25;;;;;;;;;;;17.20;55.40;;;;;;10368199;28;93461;-61
2023/01/30 18:02:27;;;;;;;;;;;17.30;55.30;;;;;;10350087;28;93119;-61
2023/01/30 18:07:29;;;;;;;;;;;17.40;55.20;;;;;;10369590;28;94442;-60
2023/01/30 18:12:31;;;;;;;;;;;17.50;55.40;;;;;;10369729;28;93361;-61
2023/01/30 18:17:33;;;;;;;;;;;17.70;55.00;;;;;;10350945;28;94353;-60
2023/01/30 18:22:35;;;;;;;;;;;17.80;54.80;;;;;;10375452;28;93445;-61
2023/01/30 18:27:37;;;;;;;;;;;17.90;54.60;;;;;;10378526;28;95860;-60
2023/01/30 18:32:39;;;;;;;;;;;18.00;54.60;;;;;;10411836;28;93515;-61
2023/01/30 18:37:53;;;;;;;;;;;18.00;54.60;;;;;;10334845;28;94637;-62
2023/01/30 18:43:01;;;;;;;;;;;17.80;54.60;;;;;;10333416;28;93506;-60
2023/01/30 18:48:03;;;;;;;;;;;17.80;54.90;;;;;;10332304;28;93806;-61
2023/01/30 18:53:06;;;;;;;;;;;17.80;55.10;;;;;;10333300;28;95014;-60
2023/01/30 18:58:07;;;;;;;;;;;17.80;55.10;;;;;;10333735;28;94606;-61
2023/01/30 19:03:09;;;;;;;;;;;18.00;55.00;;;;;;10334556;28;93710;-60
2023/01/30 19:08:11;;;;;;;;;;;18.00;54.90;;;;;;10371380;28;93416;-61
2023/01/30 19:18:35;;;;;;;;;;;18.30;54.60;;;;;;10370466;28;115704;-60
2023/01/30 19:23:36;;;;;;;;;;;18.30;54.50;;;;;;10373181;28;94389;-61
2023/01/30 19:28:40;;;;;;;;;;;18.20;54.50;;;;;;10374103;28;93417;-61
2023/01/30 19:33:42;;;;;;;;;;;18.10;54.70;;;;;;10372000;28;93490;-60
2023/01/30 19:38:45;;;;;;;;;;;18.10;54.80;;;;;;10372322;28;93907;-61
2023/01/30 19:43:46;;;;;;;;;;;18.10;54.90;;;;;;10369545;28;94498;-61
2023/01/30 19:48:48;;;;;;;;;;;18.20;54.90;;;;;;10376296;28;93479;-61
2023/01/30 19:53:51;;;;;;;;;;;18.30;54.70;;;;;;10399441;28;92680;-61
2023/01/30 19:58:54;;;;;;;;;;;18.30;54.60;;;;;;10369153;28;94285;-61
2023/01/30 20:03:56;;;;;;;;;;;18.20;54.70;;;;;;10372945;28;96955;-61
2023/01/30 20:08:59;;;;;;;;;;;18.00;55.00;;;;;;10369564;28;95695;-61
2023/01/30 20:14:03;;;;;;;;;;;17.90;55.20;;;;;;10352581;28;94671;-61
2023/01/30 20:19:11;;;;;;;;;;;17.70;55.50;;;;;;10372281;28;93415;-60
2023/01/30 20:24:13;;;;;;;;;;;17.60;55.80;;;;;;10371678;28;94628;-61
2023/01/30 20:29:16;;;;;;;;;;;17.40;55.90;;;;;;10372799;28;94439;-61
2023/01/30 20:34:18;;;;;;;;;;;17.30;57.40;;;;;;10372251;28;94371;-60
2023/01/30 20:39:20;;;;;;;;;;;17.20;56.70;;;;;;10370681;28;94375;-60
2023/01/30 20:44:23;;;;;;;;;;;17.10;56.90;;;;;;10353543;28;92522;-60
2023/01/30 20:49:25;;;;;;;;;;;17.00;57.20;;;;;;10370411;28;93325;-60
2023/01/30 20:54:27;;;;;;;;;;;16.80;57.30;;;;;;10353084;28;93546;-61
2023/01/30 20:59:28;;;;;;;;;;;16.80;57.70;;;;;;10350006;28;95970;-60
2023/01/30 21:04:30;;;;;;;;;;;16.70;57.70;;;;;;10352572;28;93627;-61
2023/01/30 21:09:32;;;;;;;;;;;16.60;57.90;;;;;;10369828;28;92786;-61
2023/01/30 21:14:34;;;;;;;;;;;16.60;58.00;;;;;;10371395;28;93433;-60
2023/01/30 21:19:36;;;;;;;;;;;16.50;58.10;;;;;;10350092;28;93511;-60
2023/01/30 21:24:42;;;;;;;;;;;16.50;58.30;;;;;;10369940;28;93426;-60
2023/01/30 21:29:43;;;;;;;;;;;16.40;58.20;;;;;;10370344;28;92908;-60
2023/01/30 21:34:45;;;;;;;;;;;16.30;58.20;;;;;;10369418;28;93476;-60
2023/01/30 21:45:07;;;;;;;;;;;16.20;58.00;;;;;;10369694;28;94623;-60
2023/01/30 21:50:09;;;;;;;;;;;16.20;58.10;;;;;;10367590;28;97024;-60
2023/01/30 21:55:10;;;;;;;;;;;16.10;58.00;;;;;;10372255;28;93750;-60
2023/01/30 22:00:12;;;;;;;;;;;16.10;57.90;;;;;;10376196;28;94488;-61
2023/01/30 22:05:14;;;;;;;;;;;16.10;58.00;;;;;;10376685;28;94969;-61
2023/01/30 22:10:16;;;;;;;;;;;16.00;57.90;;;;;;10375505;28;93321;-60
2023/01/30 22:15:20;;;;;;;;;;;16.00;57.90;;;;;;10376653;28;94135;-61
2023/01/30 22:20:22;;;;;;;;;;;15.90;58.00;;;;;;10359109;28;94458;-61
2023/01/30 22:25:24;;;;;;;;;;;15.90;58.10;;;;;;10376798;28;92734;-60
2023/01/30 22:30:26;;;;;;;;;;;15.90;58.10;;;;;;10375253;28;93629;-60
2023/01/30 22:35:28;;;;;;;;;;;15.80;58.10;;;;;;10375889;28;93644;-60
2023/01/30 22:40:29;;;;;;;;;;;15.80;58.10;;;;;;10363622;28;99490;-61
2023/01/30 22:45:33;;;;;;;;;;;15.80;58.00;;;;;;10316989;28;94406;-60
2023/01/30 22:50:35;;;;;;;;;;;15.80;58.10;;;;;;10334618;28;93707;-60
2023/01/30 22:55:37;;;;;;;;;;;15.80;58.10;;;;;;10333597;28;93402;-60
2023/01/30 23:00:39;;;;;;;;;;;15.70;58.00;;;;;;10316136;28;94417;-61
2023/01/30 23:05:41;;;;;;;;;;;15.70;58.00;;;;;;10332084;28;92789;-61
2023/01/30 23:10:43;;;;;;;;;;;15.70;58.00;;;;;;10357410;28;93461;-61
2023/01/30 23:15:45;;;;;;;;;;;15.70;58.00;;;;;;10375888;28;93445;-60
2023/01/30 23:20:47;;;;;;;;;;;15.70;58.00;;;;;;10375146;28;93051;-60
2023/01/30 23:25:49;;;;;;;;;;;15.60;57.90;;;;;;10374352;28;94882;-60
2023/01/30 23:30:51;;;;;;;;;;;15.60;58.00;;;;;;10371153;28;96835;-60
2023/01/30 23:35:53;;;;;;;;;;;15.60;57.90;;;;;;10374840;28;94496;-59
2023/01/30 23:41:02;;;;;;;;;;;15.60;57.80;;;;;;10373678;28;94178;-61
2023/01/30 23:46:11;;;;;;;;;;;15.50;57.60;;;;;;10375116;28;94514;-60
2023/01/30 23:51:14;;;;;;;;;;;15.50;57.70;;;;;;10374605;28;94634;-61
2023/01/30 23:56:16;;;;;;;;;;;15.50;57.70;;;;;;10373030;28;94451;-61
